createdAt,value
2023-04-07T00:00:24.643Z,81.81
2023-04-07T00:02:51.798Z,80.76
2023-04-07T00:05:21.652Z,80.89
2023-04-07T00:07:55.636Z,81.28
2023-04-07T00:10:22.891Z,81.71
2023-04-07T00:12:49.948Z,81.09
2023-04-07T00:15:18.902Z,81.35
2023-04-07T00:17:45.439Z,81.42
2023-04-07T00:20:12.547Z,82.06
2023-04-07T00:22:39.660Z,81.81
2023-04-07T00:25:06.801Z,81.54
2023-04-07T00:27:33.242Z,82.36
2023-04-07T00:30:00.009Z,82.09
2023-04-07T00:32:27.048Z,81.65
2023-04-07T00:34:54.176Z,81.84
2023-04-07T00:37:21.403Z,81.44
2023-04-07T00:39:48.066Z,80.21
2023-04-07T00:42:14.526Z,81.06
2023-04-07T00:44:41.265Z,80.75
2023-04-07T00:47:08.308Z,80.56
2023-04-07T00:49:36.582Z,80.95
2023-04-07T00:52:04.487Z,80.67
2023-04-07T00:54:31.238Z,81.59
2023-04-07T00:56:58.226Z,81.55
2023-04-07T00:59:25.913Z,82.23
2023-04-07T01:02:14.433Z,81.66
2023-04-07T01:04:45.340Z,81.48
2023-04-07T01:07:18.745Z,80.95
2023-04-07T01:10:05.998Z,80.60
2023-04-07T01:12:58.923Z,80.32
2023-04-07T01:15:30.277Z,79.43
2023-04-07T01:18:11.213Z,79.59
2023-04-07T01:20:39.911Z,79.68
2023-04-07T01:23:09.831Z,79.82
2023-04-07T01:29:50.872Z,81.83
2023-04-07T01:32:20.918Z,83.14
2023-04-07T01:34:49.465Z,83.93
2023-04-07T01:37:17.588Z,82.89
2023-04-07T01:39:44.622Z,82.42
2023-04-07T01:42:12.486Z,83.93
2023-04-07T01:44:39.982Z,83.81
2023-04-07T01:47:08.221Z,84.29
2023-04-07T01:49:37.074Z,84.85
2023-04-07T01:52:04.777Z,84.93
2023-04-07T01:54:31.790Z,84.99
2023-04-07T01:56:58.490Z,83.30
2023-04-07T01:59:26.475Z,83.10
2023-04-07T02:01:54.501Z,81.87
2023-04-07T02:04:33.419Z,81.96
2023-04-07T02:07:06.110Z,81.62
2023-04-07T02:09:42.307Z,81.64
2023-04-07T02:12:12.956Z,81.10
2023-04-07T02:14:46.195Z,80.90
2023-04-07T02:17:16.620Z,81.04
2023-04-07T02:19:46.179Z,80.59
2023-04-07T02:22:14.154Z,81.01
2023-04-07T02:24:43.776Z,80.06
2023-04-07T02:27:11.382Z,80.27
2023-04-07T02:29:38.101Z,80.89
2023-04-07T02:32:06.553Z,82.48
2023-04-07T02:34:33.975Z,82.68
2023-04-07T02:37:00.839Z,82.02
2023-04-07T02:39:27.362Z,82.18
2023-04-07T02:41:53.998Z,81.74
2023-04-07T02:44:20.471Z,81.43
2023-04-07T02:46:47.349Z,81.69
2023-04-07T02:49:13.948Z,80.85
2023-04-07T02:51:40.344Z,82.48
2023-04-07T02:54:06.838Z,82.43
2023-04-07T02:56:33.785Z,82.88
2023-04-07T02:59:03.233Z,83.85
2023-04-07T03:01:35.769Z,83.35
2023-04-07T03:04:02.902Z,82.45
2023-04-07T03:06:31.606Z,82.72
2023-04-07T03:09:07.176Z,83.10
2023-04-07T03:11:33.696Z,81.66
2023-04-07T03:14:01.336Z,81.43
2023-04-07T03:16:30.318Z,80.96
2023-04-07T03:19:09.586Z,80.81
2023-04-07T03:21:40.196Z,79.85
2023-04-07T03:24:07.353Z,78.00
2023-04-07T03:26:34.060Z,78.38
2023-04-07T03:29:02.965Z,79.01
2023-04-07T03:31:30.586Z,79.65
2023-04-07T03:33:57.449Z,80.42
2023-04-07T03:36:25.159Z,79.77
2023-04-07T03:38:52.760Z,79.43
2023-04-07T03:41:19.305Z,79.58
2023-04-07T03:43:47.584Z,79.07
2023-04-07T03:46:15.513Z,78.80
2023-04-07T03:48:42.818Z,79.12
2023-04-07T03:51:10.651Z,80.31
2023-04-07T03:53:38.193Z,81.31
2023-04-07T03:56:17.151Z,81.75
2023-04-07T03:58:47.301Z,81.71
2023-04-07T04:01:19.768Z,81.56
2023-04-07T04:03:50.169Z,81.97
2023-04-07T04:06:27.878Z,81.76
2023-04-07T04:09:01.712Z,80.84
2023-04-07T04:11:31.620Z,81.64
2023-04-07T04:14:02.736Z,80.51
2023-04-07T04:16:30.338Z,80.81
2023-04-07T04:19:01.733Z,80.71
2023-04-07T04:21:31.170Z,80.89
2023-04-07T04:23:59.001Z,80.81
2023-04-07T04:26:30.197Z,80.14
2023-04-07T04:29:03.561Z,80.35
2023-04-07T04:31:30.432Z,80.21
2023-04-07T04:33:58.366Z,81.86
2023-04-07T04:36:26.294Z,82.01
2023-04-07T04:38:58.497Z,81.57
2023-04-07T04:41:24.941Z,80.55
2023-04-07T04:43:52.200Z,81.74
2023-04-07T04:46:23.222Z,82.26
2023-04-07T04:48:51.728Z,82.23
2023-04-07T04:51:20.408Z,81.71
2023-04-07T04:53:52.238Z,80.93
2023-04-07T04:56:21.565Z,81.40
2023-04-07T04:58:52.352Z,83.59
2023-04-07T05:01:28.475Z,85.23
2023-04-07T05:04:03.443Z,85.50
2023-04-07T05:06:30.258Z,83.93
2023-04-07T05:09:04.538Z,82.13
2023-04-07T05:11:41.197Z,82.11
2023-04-07T05:14:07.851Z,81.58
2023-04-07T05:16:35.932Z,82.83
2023-04-07T05:19:04.349Z,82.41
2023-04-07T05:21:31.752Z,81.46
2023-04-07T05:24:02.378Z,80.50
2023-04-07T05:26:30.233Z,79.64
2023-04-07T05:28:57.280Z,79.36
2023-04-07T05:31:25.430Z,78.78
2023-04-07T05:33:55.365Z,79.41
2023-04-07T05:36:26.639Z,80.12
2023-04-07T05:38:56.293Z,80.12
2023-04-07T05:41:24.682Z,79.73
2023-04-07T05:43:51.936Z,79.52
2023-04-07T05:46:19.041Z,79.17
2023-04-07T05:48:51.714Z,79.33
2023-04-07T05:51:19.656Z,79.27
2023-04-07T05:53:46.423Z,79.78
2023-04-07T05:56:12.945Z,80.44
2023-04-07T05:58:45.235Z,80.93
2023-04-07T06:01:13.581Z,81.59
2023-04-07T06:03:41.253Z,81.93
2023-04-07T06:06:34.100Z,83.30
2023-04-07T06:09:01.395Z,83.76
2023-04-07T06:11:28.039Z,83.51
2023-04-07T06:13:54.633Z,84.02
2023-04-07T06:16:21.312Z,82.79
2023-04-07T06:18:47.886Z,82.11
2023-04-07T06:21:16.097Z,80.43
2023-04-07T06:23:42.636Z,80.92
2023-04-07T06:26:12.732Z,81.11
2023-04-07T06:28:40.046Z,81.08
2023-04-07T06:31:07.461Z,83.21
2023-04-07T06:33:37.987Z,83.33
2023-04-07T06:36:04.603Z,83.85
2023-04-07T06:38:32.577Z,84.43
2023-04-07T06:40:59.448Z,84.18
2023-04-07T06:43:26.264Z,84.42
2023-04-07T06:46:01.431Z,84.92
2023-04-07T06:48:27.995Z,84.62
2023-04-07T06:50:54.508Z,85.86
2023-04-07T06:53:21.279Z,85.44
2023-04-07T06:55:47.988Z,85.48
2023-04-07T06:58:14.612Z,85.27
2023-04-07T07:00:41.073Z,84.82
2023-04-07T07:03:09.453Z,84.28
2023-04-07T07:05:36.419Z,84.04
2023-04-07T07:08:02.941Z,83.50
2023-04-07T07:10:29.621Z,84.09
2023-04-07T07:19:44.979Z,82.52
2023-04-07T07:22:11.476Z,83.30
2023-04-07T07:24:37.881Z,82.96
2023-04-07T07:27:04.386Z,93.14
2023-04-07T07:29:31.231Z,88.29
2023-04-07T07:31:57.738Z,78.11
2023-04-07T07:34:24.209Z,77.23
2023-04-07T07:36:50.681Z,76.37
2023-04-07T07:39:17.366Z,77.50
2023-04-07T07:41:43.788Z,76.18
2023-04-07T07:44:10.328Z,76.17
2023-04-07T07:46:36.752Z,74.98
2023-04-07T07:49:05.203Z,73.97
2023-04-07T07:51:31.685Z,72.66
2023-04-07T07:53:58.162Z,72.22
2023-04-07T07:56:24.632Z,71.83
2023-04-07T07:58:51.122Z,72.52
2023-04-07T08:01:17.543Z,72.50
2023-04-07T08:03:44.179Z,71.36
2023-04-07T08:06:11.815Z,70.61
2023-04-07T08:08:38.405Z,69.84
2023-04-07T08:11:04.895Z,69.22
2023-04-07T08:13:31.338Z,68.04
2023-04-07T08:15:57.795Z,66.76
2023-04-07T08:18:25.311Z,66.85
2023-04-07T08:20:52.686Z,65.30
2023-04-07T08:23:19.288Z,64.09
2023-04-07T08:25:45.787Z,62.57
2023-04-07T08:28:12.350Z,61.23
2023-04-07T08:30:38.768Z,61.66
2023-04-07T08:33:06.103Z,62.61
2023-04-07T08:35:32.595Z,62.83
2023-04-07T08:37:58.997Z,62.91
2023-04-07T08:40:25.790Z,62.38
2023-04-07T08:42:52.615Z,61.15
2023-04-07T08:45:19.403Z,60.08
2023-04-07T08:47:48.087Z,61.22
2023-04-07T08:50:17.489Z,60.37
2023-04-07T08:52:53.326Z,59.47
2023-04-07T08:55:20.047Z,58.44
2023-04-07T08:57:47.541Z,59.37
2023-04-07T09:00:15.915Z,59.71
2023-04-07T09:02:45.338Z,59.95
2023-04-07T09:05:14.440Z,59.54
2023-04-07T09:07:41.100Z,58.23
2023-04-07T09:10:08.007Z,58.70
2023-04-07T09:12:34.668Z,59.60
2023-04-07T09:15:01.609Z,58.92
2023-04-07T09:17:29.225Z,59.11
2023-04-07T09:19:57.594Z,59.33
2023-04-07T09:22:38.516Z,60.14
2023-04-07T09:25:18.520Z,59.85
2023-04-07T09:28:17.642Z,60.43
2023-04-07T09:30:53.458Z,61.09
2023-04-07T09:33:27.991Z,60.85
2023-04-07T09:35:54.802Z,61.16
2023-04-07T09:38:21.419Z,61.00
2023-04-07T09:40:48.428Z,61.33
2023-04-07T09:43:17.300Z,61.51
2023-04-07T09:45:43.813Z,62.36
2023-04-07T09:48:20.579Z,62.86
2023-04-07T09:50:49.588Z,63.58
2023-04-07T09:53:16.971Z,64.01
2023-04-07T09:55:43.916Z,65.60
2023-04-07T09:58:13.416Z,66.10
2023-04-07T10:00:41.401Z,66.06
2023-04-07T10:03:08.293Z,66.07
2023-04-07T10:05:36.640Z,66.06
2023-04-07T10:08:03.389Z,66.59
2023-04-07T10:10:31.736Z,67.26
2023-04-07T10:12:59.027Z,68.21
2023-04-07T10:15:25.670Z,69.86
2023-04-07T10:17:54.502Z,70.20
2023-04-07T10:20:21.977Z,70.25
2023-04-07T10:22:51.443Z,69.95
2023-04-07T10:25:21.150Z,69.73
2023-04-07T10:27:59.328Z,69.30
2023-04-07T10:30:28.885Z,69.41
2023-04-07T10:32:55.649Z,68.40
2023-04-07T10:35:22.985Z,68.05
2023-04-07T10:38:08.237Z,68.27
2023-04-07T10:40:36.264Z,68.79
2023-04-07T10:43:03.464Z,68.53
2023-04-07T10:45:51.935Z,67.50
2023-04-07T10:48:19.512Z,66.39
2023-04-07T10:51:04.771Z,66.45
2023-04-07T10:53:31.571Z,66.48
2023-04-07T10:55:59.317Z,67.16
2023-04-07T10:58:30.708Z,65.49
2023-04-07T11:00:57.127Z,66.17
2023-04-07T11:03:25.004Z,66.45
2023-04-07T11:05:51.553Z,66.62
2023-04-07T11:08:37.841Z,67.08
2023-04-07T11:11:11.712Z,67.37
2023-04-07T11:13:46.703Z,65.99
2023-04-07T11:16:14.729Z,64.48
2023-04-07T11:18:41.785Z,64.29
2023-04-07T11:21:08.775Z,63.54
2023-04-07T11:23:40.080Z,62.64
2023-04-07T11:26:07.598Z,62.79
2023-04-07T11:28:34.512Z,63.53
2023-04-07T11:31:01.100Z,63.33
2023-04-07T11:33:30.234Z,63.01
2023-04-07T11:35:59.369Z,62.81
2023-04-07T11:38:34.938Z,62.47
2023-04-07T11:41:11.582Z,65.47
2023-04-07T11:43:39.820Z,65.54
2023-04-07T11:46:14.699Z,65.01
2023-04-07T11:48:43.618Z,64.00
2023-04-07T11:51:23.978Z,65.05
2023-04-07T11:53:57.448Z,65.31
2023-04-07T11:56:24.024Z,64.99
2023-04-07T11:58:52.686Z,65.69
2023-04-07T12:01:20.451Z,65.09
2023-04-07T12:04:02.917Z,65.23
2023-04-07T12:06:38.534Z,66.53
2023-04-07T12:09:05.917Z,66.72
2023-04-07T12:11:33.083Z,67.42
2023-04-07T12:13:59.542Z,68.04
2023-04-07T12:16:26.273Z,67.95
2023-04-07T12:18:52.971Z,67.45
2023-04-07T12:21:20.333Z,69.15
2023-04-07T12:23:48.473Z,70.11
2023-04-07T12:26:15.435Z,72.48
2023-04-07T12:28:41.819Z,73.57
2023-04-07T12:31:08.256Z,74.68
2023-04-07T12:33:34.846Z,74.70
2023-04-07T12:36:01.414Z,74.55
2023-04-07T12:38:28.815Z,73.95
2023-04-07T12:40:55.342Z,74.47
2023-04-07T12:43:21.794Z,73.98
2023-04-07T12:45:48.318Z,73.79
2023-04-07T12:48:16.195Z,72.72
2023-04-07T12:50:42.708Z,72.60
2023-04-07T12:53:09.313Z,71.61
2023-04-07T12:55:36.577Z,71.97
2023-04-07T12:58:03.415Z,71.70
2023-04-07T13:00:29.948Z,71.92
2023-04-07T13:02:56.605Z,71.61
2023-04-07T13:05:23.316Z,71.52
2023-04-07T13:07:49.969Z,71.03
2023-04-07T13:10:16.452Z,71.86
2023-04-07T13:12:43.213Z,71.67
2023-04-07T13:15:09.739Z,71.38
2023-04-07T13:17:39.205Z,72.07
2023-04-07T13:20:06.823Z,72.46
2023-04-07T13:22:35.715Z,73.35
2023-04-07T13:25:02.567Z,74.17
2023-04-07T13:27:29.069Z,74.00
2023-04-07T13:29:55.848Z,74.54
2023-04-07T13:32:23.559Z,70.59
2023-04-07T13:34:50.168Z,73.20
2023-04-07T13:37:17.235Z,72.57
2023-04-07T13:39:43.647Z,73.64
2023-04-07T13:42:12.510Z,74.75
2023-04-07T13:44:40.099Z,71.95
2023-04-07T13:47:06.662Z,73.31
2023-04-07T13:49:33.111Z,73.28
2023-04-07T13:51:59.701Z,72.38
2023-04-07T13:54:26.163Z,70.46
2023-04-07T13:56:52.706Z,68.41
2023-04-07T13:59:19.619Z,70.41
2023-04-07T14:01:46.135Z,72.92
2023-04-07T14:04:13.139Z,71.99
2023-04-07T14:06:39.702Z,71.92
2023-04-07T14:09:06.457Z,71.96
2023-04-07T14:11:34.633Z,73.63
2023-04-07T14:14:01.972Z,69.01
2023-04-07T14:16:28.695Z,72.62
2023-04-07T14:18:55.987Z,71.56
2023-04-07T14:21:22.810Z,71.99
2023-04-07T14:23:49.433Z,70.13
2023-04-07T14:26:16.006Z,71.03
2023-04-07T14:28:42.703Z,71.00
2023-04-07T14:31:14.099Z,70.86
2023-04-07T14:33:40.900Z,71.07
2023-04-07T14:36:07.427Z,71.45
2023-04-07T14:38:35.248Z,71.29
2023-04-07T14:43:32.675Z,71.62
2023-04-07T14:45:59.724Z,71.14
2023-04-07T14:48:26.686Z,71.50
2023-04-07T14:51:06.062Z,71.49
2023-04-07T14:53:35.127Z,70.90
2023-04-07T14:56:04.929Z,69.70
2023-04-07T14:58:31.936Z,66.07
2023-04-07T15:00:58.597Z,71.54
2023-04-07T15:03:25.213Z,71.50
2023-04-07T15:05:51.800Z,67.39
2023-04-07T15:08:18.292Z,69.05
2023-04-07T15:10:44.726Z,68.89
2023-04-07T15:13:11.176Z,68.68
2023-04-07T15:15:37.746Z,70.48
2023-04-07T15:18:04.441Z,69.55
2023-04-07T15:20:30.925Z,69.60
2023-04-07T15:22:57.668Z,71.25
2023-04-07T15:25:24.243Z,72.29
2023-04-07T15:27:50.699Z,72.12
2023-04-07T15:30:17.171Z,72.63
2023-04-07T15:32:57.482Z,73.75
2023-04-07T15:35:24.050Z,74.08
2023-04-07T15:37:50.670Z,74.91
2023-04-07T15:40:17.195Z,72.75
2023-04-07T15:42:43.699Z,72.37
2023-04-07T15:45:10.823Z,67.65
2023-04-07T15:47:37.344Z,68.93
2023-04-07T15:50:04.083Z,66.75
2023-04-07T15:52:30.951Z,68.07
2023-04-07T15:54:57.377Z,68.29
2023-04-07T15:57:23.961Z,70.02
2023-04-07T15:59:52.036Z,70.74
2023-04-07T16:02:18.534Z,71.50
2023-04-07T16:04:47.336Z,72.09
2023-04-07T16:07:13.708Z,71.26
2023-04-07T16:09:40.106Z,70.93
2023-04-07T16:12:06.771Z,71.73
2023-04-07T16:14:33.184Z,71.55
2023-04-07T16:16:59.654Z,72.74
2023-04-07T16:19:26.405Z,72.12
2023-04-07T16:21:53.439Z,72.68
2023-04-07T16:24:20.050Z,72.58
2023-04-07T16:26:50.290Z,73.14
2023-04-07T16:29:18.225Z,73.36
2023-04-07T16:31:45.191Z,73.57
2023-04-07T16:34:12.284Z,73.38
2023-04-07T16:36:39.195Z,73.78
2023-04-07T16:39:05.690Z,73.45
2023-04-07T16:41:32.352Z,73.50
2023-04-07T16:43:58.900Z,72.82
2023-04-07T16:46:29.132Z,72.86
2023-04-07T16:48:55.839Z,72.63
2023-04-07T16:51:22.408Z,72.63
2023-04-07T16:53:48.984Z,72.02
2023-04-07T16:56:21.383Z,71.63
2023-04-07T16:58:48.948Z,72.42
2023-04-07T17:01:15.836Z,71.86
2023-04-07T17:03:42.397Z,71.39
2023-04-07T17:06:09.005Z,70.99
2023-04-07T17:08:37.029Z,70.74
2023-04-07T17:11:07.674Z,70.29
2023-04-07T17:13:34.452Z,70.39
2023-04-07T17:16:03.437Z,70.58
2023-04-07T17:18:30.033Z,71.03
2023-04-07T17:20:56.462Z,70.42
2023-04-07T17:23:23.000Z,70.56
2023-04-07T17:25:50.687Z,70.17
2023-04-07T17:28:17.449Z,70.60
2023-04-07T17:30:44.012Z,69.79
2023-04-07T17:33:12.112Z,69.67
2023-04-07T17:35:38.784Z,69.75
2023-04-07T17:38:06.671Z,69.53
2023-04-07T17:40:33.116Z,69.71
2023-04-07T17:43:00.064Z,70.82
2023-04-07T17:45:26.746Z,71.82
2023-04-07T17:47:53.228Z,71.83
2023-04-07T17:50:19.752Z,72.49
2023-04-07T17:52:46.780Z,72.44
2023-04-07T17:55:13.246Z,72.49
2023-04-07T17:57:41.507Z,73.05
2023-04-07T18:00:08.951Z,71.93
2023-04-07T18:02:44.292Z,77.20
2023-04-07T18:05:11.374Z,75.03
2023-04-07T18:07:38.713Z,73.82
2023-04-07T18:10:05.699Z,70.35
2023-04-07T18:12:32.199Z,68.07
2023-04-07T18:14:58.639Z,68.23
2023-04-07T18:17:25.572Z,68.29
2023-04-07T18:19:52.009Z,68.40
2023-04-07T18:22:18.625Z,68.66
2023-04-07T18:24:45.070Z,69.69
2023-04-07T18:27:11.679Z,70.05
2023-04-07T18:29:38.146Z,69.99
2023-04-07T18:32:04.679Z,70.28
2023-04-07T18:34:31.342Z,70.24
2023-04-07T18:36:57.770Z,71.03
2023-04-07T18:39:27.879Z,71.56
2023-04-07T18:41:55.291Z,71.63
2023-04-07T18:44:21.758Z,72.61
2023-04-07T18:46:48.341Z,72.15
2023-04-07T18:49:14.970Z,73.01
2023-04-07T18:51:44.543Z,73.24
2023-04-07T18:54:11.024Z,73.68
2023-04-07T18:56:37.511Z,73.53
2023-04-07T18:59:04.265Z,73.40
2023-04-07T19:01:31.196Z,73.91
2023-04-07T19:03:57.855Z,73.67
2023-04-07T19:06:24.500Z,73.08
2023-04-07T19:08:51.247Z,73.17
2023-04-07T19:11:17.913Z,73.13
2023-04-07T19:13:44.328Z,73.76
2023-04-07T19:16:11.088Z,73.67
2023-04-07T19:18:37.955Z,73.82
2023-04-07T19:21:04.503Z,73.23
2023-04-07T19:23:31.229Z,73.56
2023-04-07T19:25:57.783Z,72.94
2023-04-07T19:28:24.400Z,72.84
2023-04-07T19:30:50.950Z,73.29
2023-04-07T19:33:17.608Z,72.71
2023-04-07T19:35:44.200Z,73.05
2023-04-07T19:38:10.826Z,72.98
2023-04-07T19:40:37.421Z,74.07
2023-04-07T19:43:03.928Z,73.74
2023-04-07T19:45:30.478Z,73.68
2023-04-07T19:47:57.178Z,73.68
2023-04-07T19:50:23.806Z,74.49
2023-04-07T19:52:53.157Z,74.65
2023-04-07T19:55:19.787Z,75.52
2023-04-07T19:57:47.070Z,75.03
2023-04-07T20:00:13.883Z,74.66
2023-04-07T20:02:50.198Z,75.44
2023-04-07T20:05:18.094Z,76.10
2023-04-07T20:07:44.697Z,76.52
2023-04-07T20:10:11.538Z,76.43
2023-04-07T20:12:37.933Z,76.42
2023-04-07T20:15:06.974Z,76.35
2023-04-07T20:17:33.537Z,75.44
2023-04-07T20:19:59.950Z,76.11
2023-04-07T20:22:26.449Z,75.91
2023-04-07T20:24:52.978Z,75.73
2023-04-07T20:27:19.557Z,75.20
2023-04-07T20:29:46.018Z,75.89
2023-04-07T20:32:12.820Z,75.80
2023-04-07T20:34:39.259Z,76.49
2023-04-07T20:37:05.954Z,76.75
2023-04-07T20:39:32.559Z,76.27
2023-04-07T20:41:59.399Z,77.05
2023-04-07T20:44:28.065Z,76.83
2023-04-07T20:46:54.622Z,77.22
2023-04-07T20:49:21.630Z,77.43
2023-04-07T20:51:48.093Z,76.98
2023-04-07T20:54:14.546Z,77.46
2023-04-07T20:56:42.827Z,78.17
2023-04-07T20:59:09.304Z,78.01
2023-04-07T21:01:36.521Z,78.11
2023-04-07T21:04:03.419Z,78.71
2023-04-07T21:06:29.878Z,78.83
2023-04-07T21:08:56.328Z,79.35
2023-04-07T21:11:22.921Z,78.95
2023-04-07T21:13:49.480Z,78.46
2023-04-07T21:16:16.038Z,78.35
2023-04-07T21:18:42.646Z,77.93
2023-04-07T21:21:09.116Z,77.75
2023-04-07T21:23:35.685Z,77.43
2023-04-07T21:26:03.420Z,77.29
2023-04-07T21:28:30.215Z,77.42
2023-04-07T21:30:57.018Z,77.23
2023-04-07T21:33:24.056Z,77.79
2023-04-07T21:35:51.689Z,78.35
2023-04-07T21:38:18.972Z,78.51
2023-04-07T21:40:45.469Z,78.89
2023-04-07T21:43:12.412Z,79.79
2023-04-07T21:45:39.015Z,80.10
2023-04-07T21:48:05.732Z,79.83
2023-04-07T21:50:32.186Z,79.35
2023-04-07T21:52:58.679Z,80.73
2023-04-07T21:55:25.227Z,80.66
2023-04-07T21:57:51.864Z,79.96
2023-04-07T22:00:18.551Z,79.58
2023-04-07T22:02:45.650Z,79.29
2023-04-07T22:05:12.389Z,79.33
2023-04-07T22:07:38.917Z,79.19
2023-04-07T22:10:06.114Z,79.36
2023-04-07T22:12:32.610Z,78.70
2023-04-07T22:14:59.077Z,79.30
2023-04-07T22:17:25.670Z,78.75
2023-04-07T22:19:52.158Z,78.71
2023-04-07T22:22:18.752Z,79.69
2023-04-07T22:24:45.239Z,78.74
2023-04-07T22:27:11.712Z,78.77
2023-04-07T22:29:38.131Z,78.39
2023-04-07T22:32:04.754Z,78.44
2023-04-07T22:34:31.389Z,79.03
2023-04-07T22:36:57.908Z,79.95
2023-04-07T22:39:24.382Z,80.42
2023-04-07T22:41:50.940Z,80.39
2023-04-07T22:44:17.426Z,81.48
2023-04-07T22:46:44.068Z,81.79
2023-04-07T22:49:10.555Z,81.30
2023-04-07T22:51:37.012Z,81.62
2023-04-07T22:54:03.509Z,81.21
2023-04-07T22:56:31.066Z,80.71
2023-04-07T22:59:05.077Z,81.58
2023-04-07T23:01:32.175Z,80.36
2023-04-07T23:03:58.890Z,80.72
2023-04-07T23:06:26.261Z,81.78
2023-04-07T23:08:52.687Z,81.71
2023-04-07T23:11:20.034Z,82.08
2023-04-07T23:13:47.366Z,81.71
2023-04-07T23:16:14.512Z,81.51
2023-04-07T23:18:41.476Z,81.54
2023-04-07T23:21:08.615Z,81.30
2023-04-07T23:23:35.840Z,81.73
2023-04-07T23:26:02.536Z,82.06
2023-04-07T23:28:29.019Z,81.71
2023-04-07T23:30:55.544Z,81.40
2023-04-07T23:33:23.523Z,80.86
2023-04-07T23:35:50.548Z,81.63
2023-04-07T23:38:17.069Z,82.06
2023-04-07T23:40:43.649Z,81.67
2023-04-07T23:43:10.679Z,81.23
2023-04-07T23:45:37.248Z,80.72
2023-04-07T23:48:03.767Z,81.28
2023-04-07T23:50:30.941Z,80.87
2023-04-07T23:52:57.458Z,80.70
2023-04-07T23:55:24.184Z,80.91
2023-04-07T23:57:50.661Z,80.71
